createdAt,value
2023-05-25T00:02:24.376Z,5.50
2023-05-25T00:04:53.581Z,5.62
2023-05-25T00:07:21.289Z,5.70
2023-05-25T00:09:49.246Z,5.10
2023-05-25T00:12:20.233Z,5.00
2023-05-25T00:14:48.156Z,4.75
2023-05-25T00:17:17.873Z,5.08
2023-05-25T00:19:46.055Z,4.97
2023-05-25T00:22:15.022Z,5.70
2023-05-25T00:24:44.673Z,4.60
2023-05-25T00:27:12.475Z,4.83
2023-05-25T00:29:41.065Z,4.62
2023-05-25T00:32:16.641Z,4.92
2023-05-25T00:34:44.587Z,4.62
2023-05-25T00:37:12.217Z,4.85
2023-05-25T00:39:41.547Z,4.80
2023-05-25T00:42:09.106Z,5.22
2023-05-25T00:44:36.828Z,4.83
2023-05-25T00:47:05.216Z,5.10
2023-05-25T00:52:27.702Z,4.78
2023-05-25T00:54:58.234Z,4.67
2023-05-25T00:57:27.890Z,4.78
2023-05-25T00:59:58.151Z,5.40
2023-05-25T01:02:29.443Z,4.97
2023-05-25T01:05:01.078Z,4.20
2023-05-25T01:07:31.499Z,4.80
2023-05-25T01:10:02.328Z,4.90
2023-05-25T01:12:30.845Z,5.28
2023-05-25T01:15:06.693Z,5.50
2023-05-25T01:17:37.381Z,4.50
2023-05-25T01:20:12.008Z,4.97
2023-05-25T01:22:45.878Z,5.45
2023-05-25T01:25:18.105Z,4.60
2023-05-25T01:27:49.499Z,6.35
2023-05-25T01:30:20.455Z,6.25
2023-05-25T01:32:50.746Z,6.35
2023-05-25T01:38:08.798Z,6.10
2023-05-25T01:40:36.434Z,5.80
2023-05-25T01:43:05.413Z,6.22
2023-05-25T01:45:34.787Z,7.03
2023-05-25T01:48:28.073Z,6.75
2023-05-25T01:51:01.644Z,7.10
2023-05-25T01:53:39.479Z,6.10
2023-05-25T01:56:11.523Z,6.20
2023-05-25T01:58:46.078Z,6.83
2023-05-25T02:01:16.865Z,6.37
2023-05-25T02:03:49.521Z,6.25
2023-05-25T02:06:18.478Z,6.95
2023-05-25T02:08:49.454Z,7.50
2023-05-25T02:11:17.139Z,7.25
2023-05-25T02:13:46.489Z,6.53
2023-05-25T02:16:14.356Z,7.33
2023-05-25T02:18:45.093Z,7.28
2023-05-25T02:21:13.225Z,6.87
2023-05-25T02:23:40.878Z,6.72
2023-05-25T02:26:08.457Z,6.65
2023-05-25T02:28:36.150Z,6.80
2023-05-25T02:31:03.390Z,7.15
2023-05-25T02:33:30.948Z,7.28
2023-05-25T02:35:58.713Z,7.40
2023-05-25T02:38:27.561Z,6.87
2023-05-25T02:40:55.553Z,6.17
2023-05-25T02:43:23.806Z,6.70
2023-05-25T02:46:00.292Z,6.75
2023-05-25T02:48:28.422Z,6.45
2023-05-25T02:50:55.957Z,7.15
2023-05-25T02:53:24.043Z,6.83
2023-05-25T02:55:51.471Z,6.47
2023-05-25T02:58:20.605Z,6.95
2023-05-25T03:00:57.746Z,6.17
2023-05-25T03:03:27.724Z,6.87
2023-05-25T03:05:57.377Z,6.08
2023-05-25T03:08:25.285Z,6.55
2023-05-25T03:10:53.510Z,6.87
2023-05-25T03:13:21.821Z,6.22
2023-05-25T03:15:49.326Z,6.10
2023-05-25T03:18:17.158Z,6.78
2023-05-25T03:20:45.982Z,6.47
2023-05-25T03:23:14.207Z,6.08
2023-05-25T03:25:42.001Z,6.70
2023-05-25T03:28:09.685Z,5.47
2023-05-25T03:30:39.318Z,5.83
2023-05-25T03:33:06.789Z,5.60
2023-05-25T03:35:36.178Z,5.70
2023-05-25T03:38:03.894Z,5.40
2023-05-25T03:40:31.515Z,5.60
2023-05-25T03:42:59.494Z,5.72
2023-05-25T03:45:27.413Z,5.45
2023-05-25T03:47:55.568Z,5.70
2023-05-25T03:50:23.585Z,6.12
2023-05-25T03:52:51.129Z,5.70
2023-05-25T03:55:18.574Z,5.67
2023-05-25T03:57:46.358Z,5.70
2023-05-25T04:00:15.235Z,5.90
2023-05-25T04:02:43.371Z,5.47
2023-05-25T04:05:10.758Z,5.53
2023-05-25T04:07:38.325Z,5.95
2023-05-25T04:10:07.503Z,5.37
2023-05-25T04:12:34.963Z,5.78
2023-05-25T04:15:04.315Z,5.97
2023-05-25T04:17:33.795Z,5.70
2023-05-25T04:20:01.380Z,5.55
2023-05-25T04:22:28.980Z,5.28
2023-05-25T04:24:56.686Z,5.78
2023-05-25T04:27:26.256Z,5.50
2023-05-25T04:29:54.710Z,5.42
2023-05-25T04:32:25.343Z,5.35
2023-05-25T04:34:54.732Z,5.45
2023-05-25T04:37:27.748Z,15.65
2023-05-25T04:40:16.725Z,5.50
2023-05-25T04:42:45.199Z,5.33
2023-05-25T04:45:14.664Z,5.67
2023-05-25T04:47:43.240Z,5.30
2023-05-25T04:50:12.935Z,5.70
2023-05-25T04:52:41.528Z,4.95
2023-05-25T04:55:11.296Z,6.45
2023-05-25T04:57:40.618Z,6.00
2023-05-25T05:00:10.945Z,6.03
2023-05-25T05:02:40.395Z,5.47
2023-05-25T05:05:12.251Z,4.85
2023-05-25T05:07:54.252Z,5.17
2023-05-25T05:10:23.504Z,5.00
2023-05-25T05:12:52.935Z,5.12
2023-05-25T05:15:24.085Z,5.15
2023-05-25T05:17:51.874Z,5.28
2023-05-25T05:20:20.198Z,4.45
2023-05-25T05:22:47.927Z,4.75
2023-05-25T05:25:15.854Z,5.15
2023-05-25T05:27:44.479Z,5.37
2023-05-25T05:30:14.705Z,7.47
2023-05-25T05:32:44.037Z,6.05
2023-05-25T05:35:13.660Z,4.60
2023-05-25T05:37:44.407Z,5.20
2023-05-25T05:40:13.201Z,4.83
2023-05-25T05:42:42.814Z,5.28
2023-05-25T05:45:11.687Z,4.70
2023-05-25T05:47:39.161Z,4.78
2023-05-25T05:50:08.726Z,4.35
2023-05-25T05:52:37.306Z,4.25
2023-05-25T05:55:05.695Z,4.65
2023-05-25T05:57:34.230Z,4.78
2023-05-25T06:00:01.801Z,4.40
2023-05-25T06:02:30.040Z,4.45
2023-05-25T06:04:57.834Z,4.60
2023-05-25T06:07:26.572Z,4.22
2023-05-25T06:09:57.017Z,4.45
2023-05-25T06:12:24.783Z,4.65
2023-05-25T06:14:53.234Z,4.65
2023-05-25T06:17:21.960Z,4.33
2023-05-25T06:20:19.896Z,3.87
2023-05-25T06:22:47.708Z,4.35
2023-05-25T06:25:16.957Z,4.85
2023-05-25T06:27:45.938Z,4.62
2023-05-25T06:30:15.260Z,5.92
2023-05-25T06:32:44.444Z,5.28
2023-05-25T06:35:13.618Z,7.80
2023-05-25T06:37:41.862Z,5.58
2023-05-25T06:40:10.597Z,4.60
2023-05-25T06:42:38.322Z,4.92
2023-05-25T06:45:09.120Z,6.85
2023-05-25T06:47:39.802Z,5.12
2023-05-25T06:50:09.119Z,6.08
2023-05-25T06:52:37.528Z,5.00
2023-05-25T06:55:08.437Z,4.37
2023-05-25T06:57:36.568Z,4.92
2023-05-25T07:00:07.879Z,5.60
2023-05-25T07:02:36.065Z,5.72
2023-05-25T07:05:05.968Z,5.80
2023-05-25T07:07:34.399Z,5.15
2023-05-25T07:10:04.595Z,5.40
2023-05-25T07:12:32.489Z,5.12
2023-05-25T07:15:01.513Z,4.85
2023-05-25T07:17:32.327Z,4.50
2023-05-25T07:20:00.074Z,4.80
2023-05-25T07:22:28.069Z,4.90
2023-05-25T07:24:55.819Z,4.78
2023-05-25T07:27:25.948Z,5.08
2023-05-25T07:29:53.515Z,4.50
2023-05-25T07:32:21.585Z,4.15
2023-05-25T07:34:50.548Z,4.72
2023-05-25T07:37:18.293Z,4.10
2023-05-25T07:39:46.214Z,4.53
2023-05-25T07:42:13.783Z,4.67
2023-05-25T07:44:44.780Z,4.58
2023-05-25T07:47:12.839Z,4.70
2023-05-25T07:49:41.135Z,4.17
2023-05-25T07:52:08.341Z,4.15
2023-05-25T07:54:38.027Z,4.80
2023-05-25T07:57:07.306Z,4.20
2023-05-25T07:59:34.775Z,4.20
2023-05-25T08:02:03.520Z,4.62
2023-05-25T08:04:34.859Z,3.85
2023-05-25T08:07:02.822Z,4.50
2023-05-25T08:09:30.469Z,4.53
2023-05-25T08:12:08.125Z,4.35
2023-05-25T08:14:28.080Z,4.22
2023-05-25T08:16:55.827Z,4.15
2023-05-25T08:19:23.733Z,4.47
2023-05-25T08:21:51.919Z,4.55
2023-05-25T08:24:19.667Z,4.80
2023-05-25T08:26:54.796Z,4.15
2023-05-25T08:29:31.439Z,4.67
2023-05-25T08:31:59.474Z,4.37
2023-05-25T08:34:27.183Z,5.10
2023-05-25T08:36:54.822Z,4.25
2023-05-25T08:39:22.791Z,4.05
2023-05-25T08:41:51.923Z,4.33
2023-05-25T08:44:23.315Z,4.40
2023-05-25T08:46:51.711Z,4.08
2023-05-25T08:49:20.901Z,3.95
2023-05-25T08:51:52.094Z,4.03
2023-05-25T08:54:22.982Z,4.15
2023-05-25T08:57:03.050Z,3.50
2023-05-25T09:00:10.147Z,4.80
2023-05-25T09:02:44.745Z,5.03
2023-05-25T09:07:43.875Z,3.80
2023-05-25T09:10:12.250Z,4.08
2023-05-25T09:12:42.412Z,3.70
2023-05-25T09:15:11.877Z,3.45
2023-05-25T09:17:41.998Z,3.50
2023-05-25T09:20:12.217Z,3.05
2023-05-25T09:22:42.353Z,2.87
2023-05-25T09:25:11.008Z,2.83
2023-05-25T09:27:39.673Z,2.40
2023-05-25T09:30:08.124Z,2.27
2023-05-25T09:32:36.589Z,2.22
2023-05-25T09:35:10.715Z,2.42
2023-05-25T09:37:39.883Z,2.30
2023-05-25T09:40:09.461Z,2.35
2023-05-25T09:42:40.470Z,2.50
2023-05-25T09:45:09.346Z,2.22
2023-05-25T09:47:37.183Z,2.27
2023-05-25T09:50:06.347Z,2.25
2023-05-25T09:52:34.245Z,2.27
2023-05-25T09:55:04.133Z,2.20
2023-05-25T09:57:31.707Z,1.87
2023-05-25T10:00:07.163Z,1.72
2023-05-25T10:02:36.751Z,1.85
2023-05-25T10:05:05.000Z,2.52
2023-05-25T10:07:33.282Z,2.25
2023-05-25T10:10:04.599Z,1.85
2023-05-25T10:12:33.508Z,1.82
2023-05-25T10:15:03.986Z,2.10
2023-05-25T10:17:33.503Z,2.10
2023-05-25T10:20:01.837Z,2.42
2023-05-25T10:22:39.091Z,2.47
2023-05-25T10:25:16.607Z,1.90
2023-05-25T10:27:52.264Z,2.02
2023-05-25T10:30:21.089Z,2.08
2023-05-25T10:32:49.070Z,1.98
2023-05-25T10:35:18.193Z,2.02
2023-05-25T10:37:46.610Z,1.85
2023-05-25T10:40:15.607Z,2.20
2023-05-25T10:42:45.715Z,2.22
2023-05-25T10:45:14.155Z,2.35
2023-05-25T10:47:42.672Z,1.80
2023-05-25T10:50:21.939Z,2.20
2023-05-25T10:52:59.291Z,1.80
2023-05-25T10:55:28.452Z,1.70
2023-05-25T10:58:10.669Z,1.60
2023-05-25T11:00:41.799Z,1.32
2023-05-25T11:03:11.482Z,1.40
2023-05-25T11:05:40.308Z,1.40
2023-05-25T11:08:10.158Z,1.37
2023-05-25T11:10:50.964Z,1.65
2023-05-25T11:13:34.050Z,1.22
2023-05-25T11:16:15.783Z,1.35
2023-05-25T11:18:46.917Z,1.27
2023-05-25T11:21:27.938Z,1.20
2023-05-25T11:24:03.375Z,1.20
2023-05-25T11:26:33.604Z,1.30
2023-05-25T11:29:07.125Z,1.72
2023-05-25T11:31:41.381Z,1.60
2023-05-25T11:34:06.859Z,1.22
2023-05-25T11:36:37.534Z,1.60
2023-05-25T11:39:11.644Z,1.70
2023-05-25T11:41:37.841Z,1.60
2023-05-25T11:44:08.427Z,1.40
2023-05-25T11:46:37.859Z,1.60
2023-05-25T11:49:05.874Z,1.60
2023-05-25T11:51:33.876Z,1.60
2023-05-25T11:54:02.077Z,1.57
2023-05-25T11:56:35.439Z,1.55
2023-05-25T11:59:03.308Z,1.30
2023-05-25T12:01:32.220Z,1.47
2023-05-25T12:04:04.113Z,1.75
2023-05-25T12:06:37.002Z,2.08
2023-05-25T12:09:08.505Z,1.25
2023-05-25T12:11:39.110Z,1.47
2023-05-25T12:14:08.300Z,1.40
2023-05-25T12:16:39.142Z,1.20
2023-05-25T12:19:08.329Z,1.40
2023-05-25T12:21:39.055Z,1.75
2023-05-25T12:24:06.916Z,1.75
2023-05-25T12:26:36.252Z,1.70
2023-05-25T12:29:10.534Z,1.57
2023-05-25T12:34:17.693Z,1.47
2023-05-25T12:36:53.865Z,1.75
2023-05-25T12:39:39.614Z,1.60
2023-05-25T12:42:11.185Z,1.50
2023-05-25T12:44:38.880Z,2.50
2023-05-25T12:47:14.443Z,1.50
2023-05-25T12:49:44.911Z,1.30
2023-05-25T12:52:33.016Z,1.50
2023-05-25T12:55:21.103Z,1.22
2023-05-25T12:57:50.831Z,1.75
2023-05-25T13:00:22.442Z,1.60
2023-05-25T13:02:51.437Z,1.65
2023-05-25T13:05:28.518Z,1.40
2023-05-25T13:07:58.032Z,1.30
2023-05-25T13:10:26.897Z,1.70
2023-05-25T13:12:56.416Z,1.62
2023-05-25T13:15:24.030Z,1.40
2023-05-25T13:17:53.972Z,1.42
2023-05-25T13:20:23.979Z,1.50
2023-05-25T13:22:53.507Z,1.45
2023-05-25T13:25:23.512Z,1.10
2023-05-25T13:27:53.136Z,1.40
2023-05-25T13:30:22.619Z,1.30
2023-05-25T13:32:51.833Z,1.47
2023-05-25T13:35:22.001Z,2.33
2023-05-25T13:37:50.128Z,2.50
2023-05-25T13:40:17.859Z,1.65
2023-05-25T13:42:45.663Z,1.90
2023-05-25T13:45:14.082Z,1.60
2023-05-25T13:47:43.992Z,1.98
2023-05-25T13:50:12.877Z,2.98
2023-05-25T13:52:43.269Z,2.10
2023-05-25T13:55:11.196Z,1.90
2023-05-25T13:57:39.008Z,1.80
2023-05-25T14:00:08.732Z,2.47
2023-05-25T14:02:36.946Z,1.47
2023-05-25T14:05:05.529Z,2.33
2023-05-25T14:07:33.482Z,1.87
2023-05-25T14:10:01.238Z,1.95
2023-05-25T14:12:28.926Z,2.37
2023-05-25T14:15:00.440Z,2.67
2023-05-25T14:17:28.747Z,2.30
2023-05-25T14:19:57.327Z,2.85
2023-05-25T14:22:26.213Z,3.08
2023-05-25T14:24:53.843Z,2.22
2023-05-25T14:27:21.690Z,1.95
2023-05-25T14:29:51.475Z,2.92
2023-05-25T14:32:19.926Z,1.60
2023-05-25T14:34:47.619Z,1.70
2023-05-25T14:37:15.154Z,2.20
2023-05-25T14:39:42.908Z,2.55
2023-05-25T14:42:10.604Z,2.95
2023-05-25T14:44:38.704Z,2.15
2023-05-25T14:47:09.855Z,2.72
2023-05-25T14:49:37.651Z,2.52
2023-05-25T14:52:05.724Z,2.58
2023-05-25T14:54:33.592Z,2.60
2023-05-25T14:57:02.318Z,2.42
2023-05-25T14:59:30.101Z,2.33
2023-05-25T15:01:58.051Z,2.40
2023-05-25T15:04:30.596Z,2.17
2023-05-25T15:06:59.876Z,2.20
2023-05-25T15:09:27.251Z,2.62
2023-05-25T15:11:55.139Z,2.22
2023-05-25T15:14:22.944Z,2.80
2023-05-25T15:16:51.080Z,2.70
2023-05-25T15:19:18.612Z,2.05
2023-05-25T15:21:46.513Z,2.20
2023-05-25T15:24:18.607Z,2.50
2023-05-25T15:26:46.956Z,2.70
2023-05-25T15:29:15.270Z,2.55
2023-05-25T15:31:42.918Z,3.00
2023-05-25T15:34:11.650Z,3.12
2023-05-25T15:36:39.879Z,2.77
2023-05-25T15:39:09.207Z,2.90
2023-05-25T15:41:37.059Z,2.80
2023-05-25T15:44:06.910Z,3.12
2023-05-25T15:46:37.214Z,3.30
2023-05-25T15:49:06.934Z,4.33
2023-05-25T15:51:34.477Z,2.92
2023-05-25T15:54:02.657Z,3.08
2023-05-25T15:56:30.782Z,3.20
2023-05-25T15:58:58.560Z,2.70
2023-05-25T16:01:28.246Z,3.25
2023-05-25T16:03:56.631Z,2.87
2023-05-25T16:06:24.386Z,2.47
2023-05-25T16:08:52.441Z,3.22
2023-05-25T16:11:20.414Z,2.75
2023-05-25T16:13:48.002Z,2.77
2023-05-25T16:16:40.949Z,2.65
2023-05-25T16:19:09.988Z,2.58
2023-05-25T16:21:38.469Z,2.60
2023-05-25T16:24:08.461Z,2.58
2023-05-25T16:26:36.317Z,2.70
2023-05-25T16:29:03.958Z,2.92
2023-05-25T16:31:31.992Z,2.62
2023-05-25T16:34:09.916Z,2.55
2023-05-25T16:36:38.510Z,2.60
2023-05-25T16:39:06.315Z,3.02
2023-05-25T16:41:34.479Z,2.83
2023-05-25T16:44:02.621Z,3.00
2023-05-25T16:46:30.284Z,3.05
2023-05-25T16:48:58.674Z,2.50
2023-05-25T16:51:26.159Z,2.87
2023-05-25T16:53:54.311Z,2.85
2023-05-25T16:56:22.027Z,2.65
2023-05-25T16:58:50.384Z,2.95
2023-05-25T17:01:18.001Z,3.42
2023-05-25T17:04:05.876Z,3.02
2023-05-25T17:06:33.358Z,2.90
2023-05-25T17:09:01.375Z,2.85
2023-05-25T17:11:29.808Z,2.75
2023-05-25T17:13:57.804Z,2.70
2023-05-25T17:16:26.178Z,2.58
2023-05-25T17:18:53.942Z,2.60
2023-05-25T17:21:24.833Z,2.33
2023-05-25T17:23:53.599Z,2.40
2023-05-25T17:26:21.733Z,2.60
2023-05-25T17:28:49.545Z,2.47
2023-05-25T17:31:17.682Z,2.52
2023-05-25T17:33:47.852Z,2.72
2023-05-25T17:36:15.147Z,2.85
2023-05-25T17:38:44.181Z,2.95
2023-05-25T17:41:12.333Z,2.12
2023-05-25T17:43:40.316Z,2.42
2023-05-25T17:46:08.331Z,2.27
2023-05-25T17:48:37.048Z,1.82
2023-05-25T17:51:05.304Z,2.42
2023-05-25T17:53:33.633Z,2.40
2023-05-25T17:56:02.138Z,2.22
2023-05-25T17:58:32.876Z,2.40
2023-05-25T18:01:00.917Z,2.22
2023-05-25T18:03:28.907Z,2.58
2023-05-25T18:05:57.955Z,2.17
2023-05-25T18:08:25.872Z,1.80
2023-05-25T18:10:53.646Z,3.08
2023-05-25T18:13:21.260Z,2.47
2023-05-25T18:15:49.601Z,2.17
2023-05-25T18:18:24.054Z,2.40
